Time;durP1;ratioP1;P1;durP2;ratioP2;P2;SDS_P1;SDS_P2;PMS_P1;PMS_P2;Temp;Humidity;BMP_temperature;BMP_pressure;BME280_temperature;BME280_humidity;BME280_pressure;Samples;Min_cycle;Max_cycle;Signal;HPM_P1;HPM_P2
2022/06/14 00:01:14;;;;;;;4.53;1.80;;;;;;;22.66;29.05;101964.56;5072487;28;20504;-95
2022/06/14 00:03:44;;;;;;;3.28;1.40;;;;;;;22.67;28.64;101974.63;5056331;28;20377;-95
2022/06/14 00:06:23;;;;;;;3.45;1.10;;;;;;;22.66;28.96;101970.09;5056970;28;20106;-94
2022/06/14 00:08:51;;;;;;;3.20;1.23;;;;;;;22.60;29.00;101965.19;5056024;28;20480;-95
2022/06/14 00:11:23;;;;;;;2.88;1.30;;;;;;;22.62;28.93;101969.56;5057430;28;20381;-94
2022/06/14 00:13:51;;;;;;;4.17;1.27;;;;;;;22.56;29.20;101967.41;5056056;28;20051;-95
2022/06/14 00:16:19;;;;;;;3.80;1.30;;;;;;;22.56;28.67;101961.00;5057924;28;20049;-96
2022/06/14 00:18:46;;;;;;;3.28;1.40;;;;;;;22.54;29.07;101963.03;5058296;28;20076;-96
2022/06/14 00:21:14;;;;;;;3.33;1.40;;;;;;;22.53;28.78;101964.94;5070884;28;20032;-94
2022/06/14 00:23:41;;;;;;;2.35;1.00;;;;;;;22.51;29.28;101963.34;5074319;28;20045;-95
2022/06/14 00:26:11;;;;;;;4.00;1.17;;;;;;;22.50;29.22;101961.59;5071698;28;20148;-94
2022/06/14 00:28:40;;;;;;;2.85;1.00;;;;;;;22.49;29.04;101966.25;5058000;28;20102;-94
2022/06/14 00:31:10;;;;;;;2.08;1.13;;;;;;;22.47;29.03;101971.09;5056074;28;20491;-95
2022/06/14 00:33:37;;;;;;;4.25;1.70;;;;;;;22.43;29.20;101958.56;5056233;28;20045;-94
2022/06/14 00:36:19;;;;;;;3.20;1.23;;;;;;;22.47;29.34;101964.69;5056524;28;20502;-95
2022/06/14 00:38:46;;;;;;;5.10;1.52;;;;;;;22.39;29.38;101962.69;5055641;28;20534;-95
2022/06/14 00:41:31;;;;;;;4.25;1.40;;;;;;;22.39;29.25;101960.78;5056381;28;20076;-93
2022/06/14 00:43:59;;;;;;;3.70;1.45;;;;;;;22.35;29.16;101962.09;5055093;28;20045;-94
2022/06/14 00:46:37;;;;;;;2.75;1.27;;;;;;;22.38;29.86;101966.47;5056567;28;20057;-95
2022/06/14 00:49:12;;;;;;;2.33;1.15;;;;;;;22.35;29.42;101964.00;5055022;28;20044;-95
2022/06/14 00:51:52;;;;;;;3.97;1.40;;;;;;;22.34;29.51;101963.13;5055609;28;20080;-93
2022/06/14 00:54:26;;;;;;;3.97;1.50;;;;;;;22.31;29.92;101970.88;5053748;28;20044;-93
2022/06/14 00:57:01;;;;;;;3.83;1.73;;;;;;;22.29;29.86;101962.72;5055480;28;20055;-93
2022/06/14 00:59:34;;;;;;;3.40;1.92;;;;;;;22.25;30.57;101964.03;5054649;28;20060;-93
2022/06/14 01:02:12;;;;;;;4.07;1.80;;;;;;;22.22;30.21;101960.72;5055536;28;20044;-94
2022/06/14 01:04:41;;;;;;;3.90;1.85;;;;;;;22.17;30.01;101955.63;5038811;28;20051;-93
2022/06/14 01:07:21;;;;;;;3.47;1.75;;;;;;;22.17;30.51;101952.84;5039547;28;20102;-93
2022/06/14 01:09:51;;;;;;;4.07;1.80;;;;;;;22.11;30.33;101956.22;5054287;28;20099;-92
2022/06/14 01:12:22;;;;;;;3.95;1.98;;;;;;;22.07;30.27;101949.28;5054071;28;20477;-94
2022/06/14 01:15:04;;;;;;;3.35;2.15;;;;;;;22.05;30.49;101950.44;5055100;28;20053;-94
2022/06/14 01:17:33;;;;;;;4.10;1.80;;;;;;;21.97;30.77;101940.13;5055603;28;20075;-94
2022/06/14 01:20:00;;;;;;;4.18;2.00;;;;;;;21.93;30.81;101933.97;5055183;28;20057;-94
2022/06/14 01:22:29;;;;;;;5.30;2.13;;;;;;;21.91;30.42;101930.47;5054824;28;20561;-95
2022/06/14 01:24:57;;;;;;;5.13;2.00;;;;;;;21.87;30.52;101939.25;5055982;28;20056;-95
2022/06/14 01:27:25;;;;;;;4.50;1.70;;;;;;;21.84;31.12;101942.28;5054628;28;20049;-96
2022/06/14 01:30:08;;;;;;;3.95;1.75;;;;;;;21.84;31.15;101948.69;5054687;28;20149;-94
2022/06/14 01:32:51;;;;;;;4.75;2.00;;;;;;;21.82;31.30;101941.59;5054140;28;20098;-95
2022/06/14 01:35:23;;;;;;;4.45;1.73;;;;;;;21.78;31.25;101949.28;5054088;28;20534;-93
2022/06/14 01:37:52;;;;;;;4.55;1.75;;;;;;;21.77;31.42;101947.56;5053511;28;20061;-94
2022/06/14 01:40:47;;;;;;;5.15;2.28;;;;;;;21.78;31.42;101951.19;5054610;28;20110;-94
2022/06/14 01:43:21;;;;;;;5.03;1.55;;;;;;;21.71;31.03;101938.97;5053680;28;20064;-95
2022/06/14 01:45:59;;;;;;;3.95;1.90;;;;;;;21.71;31.46;101937.09;5056645;28;20057;-94
2022/06/14 01:48:39;;;;;;;3.75;2.00;;;;;;;21.72;31.29;101941.59;5060712;28;20049;-94
2022/06/14 01:54:16;;;;;;;4.25;1.83;;;;;;;21.67;32.03;101943.91;5048060;28;20124;-94
2022/06/14 01:56:57;;;;;;;4.53;2.38;;;;;;;21.64;32.13;101941.47;5035074;28;20069;-95
2022/06/14 01:59:27;;;;;;;4.82;1.80;;;;;;;21.57;31.71;101943.97;5032902;28;20045;-94
2022/06/14 02:02:21;;;;;;;3.20;1.90;;;;;;;21.56;32.19;101944.97;5052731;28;20080;-94
2022/06/14 02:04:54;;;;;;;5.00;1.88;;;;;;;21.55;32.32;101942.34;5055386;28;20049;-94
2022/06/14 02:07:39;;;;;;;;;;;;;;;21.27;32.09;101938.59;5054433;28;20451;-94
2022/06/14 02:10:32;;;;;;;2.90;1.50;;;;;;;21.46;32.12;101946.88;5054768;28;19970;-95
2022/06/14 02:13:14;;;;;;;4.68;1.48;;;;;;;21.43;32.19;101940.75;5053849;28;20129;-95
2022/06/14 02:15:54;;;;;;;3.23;1.70;;;;;;;21.38;32.05;101943.97;5055564;28;20080;-95
2022/06/14 02:18:33;;;;;;;4.43;1.80;;;;;;;21.40;32.36;101946.59;5053643;28;20400;-95
2022/06/14 02:21:22;;;;;;;3.28;1.77;;;;;;;21.34;32.43;101936.09;5054541;28;20057;-94
2022/06/14 02:24:18;;;;;;;2.92;1.55;;;;;;;21.26;32.21;101936.84;5051540;28;20068;-95
2022/06/14 02:27:01;;;;;;;4.63;1.98;;;;;;;21.26;32.37;101926.66;5057275;28;20098;-94
2022/06/14 02:29:34;;;;;;;4.15;1.90;;;;;;;21.22;32.66;101927.13;5058039;28;20456;-94
2022/06/14 02:32:06;;;;;;;5.28;2.00;;;;;;;21.20;32.73;101929.13;5058321;28;20454;-94
2022/06/14 02:34:40;;;;;;;4.47;1.80;;;;;;;21.18;32.72;101923.75;5015931;28;20435;-93
2022/06/14 02:37:12;;;;;;;4.22;1.92;;;;;;;21.16;32.42;101919.38;5058368;28;20080;-94
2022/06/14 02:39:59;;;;;;;3.80;2.00;;;;;;;21.13;32.63;101925.19;5056564;28;20087;-94
2022/06/14 02:42:44;;;;;;;4.10;1.77;;;;;;;21.09;32.65;101930.09;5057960;28;20053;-93
2022/06/14 02:45:52;;;;;;;4.25;1.70;;;;;;;21.08;33.04;101930.28;5059230;28;20053;-93
2022/06/14 02:48:36;;;;;;;3.03;1.70;;;;;;;21.07;32.79;101923.88;5050596;28;20086;-94
2022/06/14 02:51:13;;;;;;;5.75;2.05;;;;;;;21.07;32.61;101923.88;5058010;28;20143;-92
2022/06/14 02:57:44;;;;;;;4.68;1.67;;;;;;;21.00;33.19;101921.84;5026824;28;20070;-91
2022/06/14 03:00:24;;;;;;;3.60;1.60;;;;;;;20.99;33.44;101926.50;5019855;28;20054;-92
2022/06/14 03:03:00;;;;;;;2.85;1.50;;;;;;;20.98;33.02;101921.09;5034050;28;20032;-92
2022/06/14 03:05:45;;;;;;;2.63;1.65;;;;;;;20.95;33.03;101919.50;5030781;28;20049;-95
2022/06/14 03:08:20;;;;;;;4.10;1.50;;;;;;;20.89;32.95;101920.97;5018524;28;20528;-94
2022/06/14 03:10:57;;;;;;;2.97;1.45;;;;;;;20.91;33.35;101918.06;5037184;28;20050;-93
2022/06/14 03:13:33;;;;;;;3.55;1.50;;;;;;;20.85;33.22;101922.25;5036182;28;20049;-93
2022/06/14 03:16:12;;;;;;;4.57;1.70;;;;;;;20.85;33.02;101924.13;5021016;28;20447;-92
2022/06/14 03:18:59;;;;;;;3.05;1.40;;;;;;;20.81;33.02;101920.81;5017036;28;20578;-94
2022/06/14 03:21:43;;;;;;;3.22;1.42;;;;;;;20.77;33.67;101916.56;5020773;28;20045;-93
2022/06/14 03:24:15;;;;;;;4.07;1.58;;;;;;;20.74;33.42;101921.50;5035688;28;20096;-94
2022/06/14 03:27:02;;;;;;;2.97;1.50;;;;;;;20.71;33.62;101921.78;5037251;28;20107;-95
2022/06/14 03:29:39;;;;;;;3.63;1.58;;;;;;;20.69;33.57;101918.28;5036265;28;20103;-93
2022/06/14 03:32:16;;;;;;;3.10;1.60;;;;;;;20.66;33.28;101911.19;5051873;28;20515;-96
2022/06/14 03:34:53;;;;;;;3.92;1.70;;;;;;;20.65;33.01;101916.84;5053090;28;20087;-93
2022/06/14 03:37:22;;;;;;;4.65;1.90;;;;;;;20.59;33.26;101920.19;5045011;28;20053;-92
2022/06/14 03:39:54;;;;;;;3.35;1.60;;;;;;;20.61;33.54;101918.13;5060065;28;20041;-93
2022/06/14 03:42:21;;;;;;;;;;;;;;;20.33;33.63;101917.00;5050977;28;20180;-93
2022/06/14 03:44:49;;;;;;;3.55;1.48;;;;;;;20.51;33.40;101915.34;5055507;28;19920;-93
2022/06/14 03:47:26;;;;;;;4.07;1.80;;;;;;;20.55;33.45;101908.53;5056055;28;20045;-93
2022/06/14 03:50:00;;;;;;;3.83;1.70;;;;;;;20.53;33.71;101913.31;5040028;28;20049;-94
2022/06/14 03:53:06;;;;;;;5.80;1.95;;;;;;;20.50;33.45;101917.25;5056918;28;20243;-94
2022/06/14 03:56:04;;;;;;;3.78;1.90;;;;;;;20.46;33.92;101920.41;5057364;28;20049;-94
2022/06/14 03:58:55;;;;;;;4.15;1.98;;;;;;;20.43;33.80;101917.94;5023212;28;20045;-93
2022/06/14 04:01:28;;;;;;;4.55;2.08;;;;;;;20.42;33.66;101916.22;5055113;28;20495;-92
2022/06/14 04:04:14;;;;;;;3.47;2.00;;;;;;;20.41;34.04;101914.47;5054855;28;20084;-92
2022/06/14 04:07:05;;;;;;;4.05;1.90;;;;;;;20.38;34.03;101914.72;5038742;28;20099;-92
2022/06/14 04:09:39;;;;;;;3.75;1.80;;;;;;;20.36;33.73;101914.00;5036025;28;20065;-94
2022/06/14 04:12:06;;;;;;;3.83;1.80;;;;;;;20.31;33.47;101914.38;5037341;28;20056;-95
2022/06/14 04:15:20;;;;;;;3.03;1.75;;;;;;;20.34;34.27;101916.03;5035804;28;20050;-94
2022/06/14 04:18:34;;;;;;;5.93;2.22;;;;;;;20.31;34.69;101921.78;5035492;28;20057;-95
2022/06/14 04:20:53;;;;;;;;;;;;;;;20.03;34.22;101920.66;5037746;28;20053;-94
2022/06/14 04:23:40;;;;;;;3.75;2.00;;;;;;;20.28;34.45;101913.78;5036808;28;19964;-95
2022/06/14 04:26:22;;;;;;;3.83;1.90;;;;;;;20.29;34.05;101918.28;5037583;28;20045;-95
2022/06/14 04:29:27;;;;;;;4.57;2.40;;;;;;;20.20;34.17;101911.72;5035101;28;20077;-95
2022/06/14 04:32:07;;;;;;;4.50;2.28;;;;;;;20.29;34.25;101918.28;4980326;28;20050;-96
2022/06/14 04:35:08;;;;;;;6.00;2.22;;;;;;;20.24;34.38;101915.09;5033153;28;20060;-94
2022/06/14 04:37:41;;;;;;;4.10;2.28;;;;;;;20.27;34.23;101920.31;5045964;28;20099;-94
2022/06/14 04:40:13;;;;;;;5.05;2.30;;;;;;;20.26;34.44;101915.84;5056833;28;20143;-95
2022/06/14 04:42:59;;;;;;;4.47;2.20;;;;;;;20.27;34.73;101917.53;5056602;28;20471;-96
2022/06/14 04:45:41;;;;;;;6.38;2.53;;;;;;;20.28;35.16;101917.41;5059286;28;20053;-96
2022/06/14 04:48:57;;;;;;;3.95;1.83;;;;;;;20.21;34.76;101919.00;5048531;28;20041;-94
2022/06/14 04:51:33;;;;;;;4.55;2.20;;;;;;;20.29;34.71;101916.41;5022470;28;20475;-92
2022/06/14 04:54:16;;;;;;;5.10;1.90;;;;;;;20.28;34.66;101911.91;5055482;28;20419;-96
2022/06/14 04:57:00;;;;;;;3.90;1.80;;;;;;;20.29;35.12;101918.28;5055710;28;20080;-94
2022/06/14 04:59:51;;;;;;;4.88;1.73;;;;;;;20.32;35.11;101926.31;5056240;28;20492;-96
2022/06/14 05:02:25;;;;;;;4.40;1.60;;;;;;;20.31;34.97;101922.66;5043088;28;20535;-93
2022/06/14 05:04:58;;;;;;;5.03;2.40;;;;;;;20.31;34.74;101930.94;5057094;28;20033;-96
2022/06/14 05:07:43;;;;;;;4.18;2.30;;;;;;;20.34;35.22;101927.91;5052737;28;20403;-87
2022/06/14 05:10:19;;;;;;;5.18;2.50;;;;;;;20.37;35.14;101930.41;5039323;28;20076;-87
2022/06/14 05:12:48;;;;;;;5.20;2.40;;;;;;;20.39;35.33;101920.13;5048613;28;20040;-86
2022/06/14 05:15:19;;;;;;;6.32;2.55;;;;;;;20.46;35.16;101928.69;5049909;28;20140;-86
2022/06/14 05:18:04;;;;;;;4.22;2.20;;;;;;;20.53;35.10;101918.84;5046876;28;20040;-87
2022/06/14 05:20:40;;;;;;;4.90;2.65;;;;;;;20.59;35.17;101920.19;5046545;28;20046;-88
2022/06/14 05:23:11;;;;;;;3.80;2.20;;;;;;;20.68;35.56;101922.06;5036028;28;20053;-88
2022/06/14 05:25:47;;;;;;;5.47;2.15;;;;;;;20.78;35.40;101932.13;5045957;28;20057;-88
2022/06/14 05:28:23;;;;;;;5.43;2.50;;;;;;;20.85;35.01;101927.75;5048217;28;20103;-87
2022/06/14 05:30:53;;;;;;;7.97;2.60;;;;;;;20.97;35.25;101924.88;5051878;28;20053;-86
2022/06/14 05:33:41;;;;;;;5.45;2.50;;;;;;;21.07;35.21;101931.28;5051523;28;20052;-86
2022/06/14 05:36:17;;;;;;;5.80;2.30;;;;;;;21.19;35.32;101932.91;5038803;28;20128;-87
2022/06/14 05:38:54;;;;;;;4.35;2.30;;;;;;;21.30;35.13;101931.91;5047761;28;20041;-88
2022/06/14 05:41:26;;;;;;;4.82;1.88;;;;;;;21.38;34.72;101929.28;5061027;28;20345;-86
2022/06/14 05:44:06;;;;;;;4.07;2.58;;;;;;;21.49;35.32;101934.66;5050783;28;20073;-86
2022/06/14 05:46:48;;;;;;;4.28;2.13;;;;;;;21.61;35.08;101927.94;5053275;28;20041;-86
2022/06/14 05:49:21;;;;;;;4.70;2.10;;;;;;;21.72;34.70;101929.69;5046900;28;20044;-85
2022/06/14 05:51:55;;;;;;;5.00;2.15;;;;;;;21.85;34.49;101936.63;5039748;28;20103;-87
2022/06/14 05:54:38;;;;;;;5.60;2.50;;;;;;;21.93;34.44;101933.09;5050352;28;20061;-86
2022/06/14 05:57:26;;;;;;;3.90;2.17;;;;;;;22.04;34.50;101935.72;5042628;28;20486;-84
2022/06/14 06:00:06;;;;;;;4.78;2.50;;;;;;;22.20;34.77;101935.97;5045747;28;20041;-84
2022/06/14 06:02:53;;;;;;;5.28;2.33;;;;;;;22.28;33.94;101938.84;5047509;28;20123;-82
2022/06/14 06:05:50;;;;;;;5.50;2.22;;;;;;;22.40;34.02;101943.13;5011429;28;20828;-86
2022/06/14 06:08:38;;;;;;;5.07;2.10;;;;;;;22.52;33.79;101931.88;5038647;28;20131;-85
2022/06/14 06:11:09;;;;;;;5.13;2.35;;;;;;;22.59;33.89;101931.09;5051013;28;20438;-87
2022/06/14 06:14:15;;;;;;;5.28;2.05;;;;;;;22.68;33.55;101937.59;5043756;28;20041;-86
2022/06/14 06:20:06;;;;;;;6.60;2.20;;;;;;;22.89;33.46;101940.16;5052352;28;20076;-83
2022/06/14 06:22:41;;;;;;;4.72;2.00;;;;;;;22.99;33.84;101944.56;5048717;28;20132;-86
2022/06/14 06:25:31;;;;;;;5.53;1.90;;;;;;;23.11;33.37;101948.00;5045240;28;20075;-85
2022/06/14 06:28:21;;;;;;;4.80;2.10;;;;;;;23.20;33.09;101941.50;5052420;28;20056;-84
2022/06/14 06:30:48;;;;;;;5.10;1.98;;;;;;;23.28;33.35;101940.72;5050194;28;20299;-85
2022/06/14 06:33:17;;;;;;;5.22;2.10;;;;;;;23.39;33.08;101946.88;5050032;28;20056;-85
2022/06/14 06:36:03;;;;;;;4.57;1.90;;;;;;;23.48;32.63;101951.50;5038601;28;20124;-85
2022/06/14 06:39:06;;;;;;;3.42;1.70;;;;;;;23.52;32.63;101954.81;5039592;28;20157;-84
2022/06/14 06:41:50;;;;;;;4.28;1.90;;;;;;;23.57;32.18;101952.44;5043320;28;20072;-83
2022/06/14 06:44:22;;;;;;;4.43;1.80;;;;;;;23.67;32.91;101949.56;5045695;28;20049;-86
2022/06/14 06:46:55;;;;;;;;;;;;;;;23.39;33.10;101957.97;5038894;28;20472;-82
2022/06/14 06:49:30;;;;;;;;;;;;;;;23.41;33.18;101955.03;5043328;28;19921;-82
2022/06/14 06:52:04;;;;;;;4.68;1.77;;;;;;;23.78;32.51;101955.75;5039482;28;20292;-82
2022/06/14 06:54:44;;;;;;;5.20;1.90;;;;;;;23.90;32.18;101957.19;5041411;28;20048;-83
2022/06/14 06:57:18;;;;;;;3.08;1.70;;;;;;;23.96;32.22;101957.59;5042287;28;20128;-84
2022/06/14 06:59:57;;;;;;;4.68;1.80;;;;;;;24.00;31.96;101957.09;5035293;28;20221;-83
2022/06/14 07:02:36;;;;;;;4.53;1.63;;;;;;;24.11;31.45;101956.84;5041160;28;20500;-82
2022/06/14 07:05:05;;;;;;;5.13;1.52;;;;;;;24.17;31.83;101952.53;5037517;28;20089;-82
2022/06/14 07:07:53;;;;;;;3.53;1.70;;;;;;;24.25;31.64;101947.94;5040048;28;20037;-83
2022/06/14 07:10:31;;;;;;;4.47;1.67;;;;;;;24.35;31.27;101955.25;5048011;28;20048;-83
2022/06/14 07:13:19;;;;;;;3.72;1.80;;;;;;;24.42;30.83;101956.34;5049078;28;20436;-83
2022/06/14 07:16:12;;;;;;;5.25;1.70;;;;;;;24.52;31.03;101951.53;5050993;28;20057;-82
2022/06/14 07:18:47;;;;;;;4.95;1.55;;;;;;;24.58;30.91;101948.94;5047869;28;20075;-83
2022/06/14 07:21:54;;;;;;;4.15;1.70;;;;;;;24.58;30.56;101951.72;5046300;28;20115;-82
2022/06/14 07:24:33;;;;;;;3.88;1.48;;;;;;;24.75;30.51;101957.34;5013962;28;20115;-83
2022/06/14 07:27:24;;;;;;;4.32;1.90;;;;;;;24.82;31.19;101953.72;5050415;28;20053;-82
2022/06/14 07:30:14;;;;;;;5.50;1.90;;;;;;;24.89;30.53;101952.00;5039273;28;20447;-83
2022/06/14 07:32:47;;;;;;;5.55;1.90;;;;;;;25.01;30.67;101963.72;5048549;28;20048;-84
2022/06/14 07:35:16;;;;;;;4.93;2.00;;;;;;;25.08;30.35;101958.34;5049046;28;20389;-84
2022/06/14 07:38:00;;;;;;;5.18;1.95;;;;;;;25.14;29.56;101955.75;5039439;28;20072;-86
2022/06/14 07:40:57;;;;;;;3.67;1.90;;;;;;;25.18;29.60;101959.94;5050762;28;20111;-84
2022/06/14 07:43:33;;;;;;;4.72;1.98;;;;;;;25.22;29.67;101955.75;5050325;28;20114;-85
2022/06/14 07:46:14;;;;;;;3.47;2.15;;;;;;;25.28;29.89;101962.56;5051776;28;20073;-84
2022/06/14 07:48:46;;;;;;;3.83;1.88;;;;;;;25.32;29.79;101962.03;5051231;28;20107;-84
2022/06/14 07:51:22;;;;;;;4.00;1.83;;;;;;;25.36;30.13;101959.78;5042873;28;20351;-83
2022/06/14 07:54:16;;;;;;;3.83;1.70;;;;;;;25.42;29.74;101956.31;5052560;28;20364;-84
2022/06/14 07:56:55;;;;;;;5.57;1.60;;;;;;;25.54;30.02;101954.03;5033840;28;20057;-84
2022/06/14 07:59:30;;;;;;;3.38;1.40;;;;;;;25.64;29.61;101952.88;5052334;28;20077;-84
2022/06/14 08:02:11;;;;;;;3.20;1.48;;;;;;;25.74;29.65;101953.56;5051424;28;20072;-84
2022/06/14 08:04:44;;;;;;;3.63;1.50;;;;;;;25.83;29.21;101957.22;5048503;28;20048;-84
2022/06/14 08:07:17;;;;;;;4.65;1.88;;;;;;;25.93;28.79;101957.91;5052582;28;20064;-85
2022/06/14 08:10:00;;;;;;;;;;;;;;;25.69;29.69;101950.44;5059403;28;20472;-84
2022/06/14 08:12:40;;;;;;;4.28;1.45;;;;;;;26.09;28.75;101943.97;5051299;28;19956;-84
2022/06/14 08:15:16;;;;;;;3.85;1.40;;;;;;;26.22;28.38;101945.31;5051528;28;20041;-84
2022/06/14 08:17:50;;;;;;;4.10;1.40;;;;;;;26.31;28.66;101944.25;5048570;28;20048;-84
2022/06/14 08:20:32;;;;;;;3.30;1.48;;;;;;;26.35;27.96;101945.66;5040256;28;20107;-84
2022/06/14 08:23:02;;;;;;;3.10;1.33;;;;;;;26.38;28.72;101931.34;5036809;28;20056;-84
2022/06/14 08:25:34;;;;;;;5.00;1.40;;;;;;;26.43;27.88;101938.16;5051584;28;20080;-84
2022/06/14 08:28:11;;;;;;;;;;;;;;;26.14;28.66;101941.50;5050432;28;20052;-84
2022/06/14 08:30:51;;;;;;;3.00;1.45;;;;;;;26.46;28.23;101939.69;5042906;28;19967;-84
2022/06/14 08:33:29;;;;;;;3.30;1.60;;;;;;;26.53;27.61;101926.75;5048847;28;20053;-84
2022/06/14 08:36:01;;;;;;;4.53;1.55;;;;;;;26.57;27.87;101930.94;5050357;28;20080;-84
2022/06/14 08:38:39;;;;;;;3.50;1.48;;;;;;;26.59;27.82;101920.50;5049514;28;20514;-83
2022/06/14 08:41:37;;;;;;;3.88;1.60;;;;;;;26.64;27.50;101915.22;5041909;28;20557;-84
2022/06/14 08:44:12;;;;;;;3.60;1.50;;;;;;;26.68;27.38;101912.97;5048947;28;20061;-84
2022/06/14 08:47:00;;;;;;;3.63;1.48;;;;;;;26.72;27.13;101908.75;5051524;28;20073;-84
2022/06/14 08:49:41;;;;;;;4.20;1.33;;;;;;;26.76;27.56;101907.34;5047501;28;20082;-84
2022/06/14 08:52:17;;;;;;;4.07;1.58;;;;;;;26.81;26.85;101905.75;5048238;28;20549;-84
2022/06/14 08:55:11;;;;;;;3.38;1.42;;;;;;;26.86;26.98;101911.63;5051369;28;20075;-84
2022/06/14 08:58:04;;;;;;;3.25;1.42;;;;;;;26.91;26.68;101894.41;5040804;28;20048;-84
2022/06/14 09:00:39;;;;;;;6.90;1.85;;;;;;;26.96;26.81;101899.41;5037285;28;20118;-84
2022/06/14 09:03:20;;;;;;;4.93;1.65;;;;;;;26.96;26.97;101907.75;5049374;28;20051;-81
2022/06/14 09:06:24;;;;;;;4.47;1.60;;;;;;;27.02;26.92;101904.22;5045733;28;20056;-83
2022/06/14 09:09:28;;;;;;;3.33;1.70;;;;;;;27.04;26.52;101903.00;5045413;28;20051;-83
2022/06/14 09:12:07;;;;;;;2.83;1.50;;;;;;;27.08;26.89;101898.81;5039081;28;20140;-83
2022/06/14 09:14:56;;;;;;;4.13;1.63;;;;;;;27.14;26.11;101889.69;5048987;28;20224;-83
2022/06/14 09:17:51;;;;;;;3.08;1.52;;;;;;;27.19;25.68;101887.19;5042856;28;20467;-83
2022/06/14 09:20:42;;;;;;;3.13;1.42;;;;;;;27.19;26.13;101887.19;5049405;28;20068;-82
2022/06/14 09:23:28;;;;;;;4.00;1.45;;;;;;;27.21;25.85;101890.69;5047018;28;20127;-83
2022/06/14 09:26:24;;;;;;;2.85;1.48;;;;;;;27.26;25.73;101890.97;5047933;28;20049;-83
2022/06/14 09:29:24;;;;;;;4.70;1.90;;;;;;;27.25;25.76;101893.97;5048800;28;20140;-83
2022/06/14 09:32:29;;;;;;;4.05;1.60;;;;;;;27.31;25.94;101893.22;5047348;28;20128;-83
2022/06/14 09:35:36;;;;;;;3.53;1.55;;;;;;;27.32;25.93;101885.72;5050175;28;20068;-82
2022/06/14 09:38:24;;;;;;;3.50;1.88;;;;;;;27.42;25.97;101900.28;5046263;28;20561;-83
2022/06/14 09:40:57;;;;;;;5.03;1.60;;;;;;;27.50;25.80;101894.63;5039781;28;20088;-83
2022/06/14 09:44:02;;;;;;;4.30;1.70;;;;;;;27.51;25.45;101900.00;5051570;28;20164;-83
2022/06/14 09:46:38;;;;;;;3.30;1.70;;;;;;;27.59;26.08;101897.16;5020325;28;20057;-84
2022/06/14 09:49:15;;;;;;;2.47;1.40;;;;;;;27.67;25.86;101893.47;5046791;28;20420;-84
2022/06/14 09:52:10;;;;;;;3.70;1.67;;;;;;;27.71;25.39;101896.72;5041979;28;20534;-83
2022/06/14 09:55:06;;;;;;;4.75;1.50;;;;;;;27.76;25.49;101895.09;5028678;28;20045;-84
2022/06/14 09:57:45;;;;;;;4.78;1.60;;;;;;;27.86;25.10;101894.81;5032683;28;20527;-83
2022/06/14 10:00:29;;;;;;;3.45;1.42;;;;;;;27.92;25.33;101892.13;5038002;28;20098;-83
2022/06/14 10:03:33;;;;;;;2.92;1.42;;;;;;;27.96;25.49;101892.63;5043911;28;20091;-83
2022/06/14 10:06:21;;;;;;;2.58;1.60;;;;;;;28.01;24.70;101884.53;5046736;28;20137;-84
2022/06/14 10:09:07;;;;;;;3.40;1.48;;;;;;;28.03;25.13;101890.78;5042345;28;20072;-83
2022/06/14 10:11:42;;;;;;;3.80;2.15;;;;;;;28.08;24.39;101884.66;5043080;28;20080;-83
2022/06/14 10:14:09;;;;;;;4.85;2.08;;;;;;;28.06;24.84;101881.19;5040610;28;20045;-83
2022/06/14 10:16:57;;;;;;;5.93;2.60;;;;;;;28.09;24.22;101887.22;5047143;28;20125;-83
2022/06/14 10:19:45;;;;;;;4.30;2.20;;;;;;;28.04;23.75;101873.00;5047456;28;20412;-83
2022/06/14 10:22:29;;;;;;;5.63;2.00;;;;;;;28.01;23.51;101884.53;5039727;28;20085;-83
2022/06/14 10:25:03;;;;;;;4.97;1.92;;;;;;;27.97;23.78;101875.69;5047930;28;20045;-83
2022/06/14 10:31:09;;;;;;;5.32;1.58;;;;;;;27.90;24.63;101860.78;5049317;28;20115;-83
2022/06/14 10:33:53;;;;;;;4.43;1.58;;;;;;;27.92;23.95;101867.00;5033620;28;20052;-83
2022/06/14 10:36:35;;;;;;;5.13;1.90;;;;;;;27.94;24.19;101872.41;5046563;28;20041;-82
2022/06/14 10:39:27;;;;;;;6.05;1.67;;;;;;;27.92;24.12;101861.41;5048041;28;20415;-82
2022/06/14 10:42:07;;;;;;;10.05;2.20;;;;;;;27.97;23.67;101853.34;5031156;28;20053;-79
2022/06/14 10:44:55;;;;;;;6.22;1.80;;;;;;;27.98;24.30;101857.00;5044107;28;20069;-79
2022/06/14 10:47:24;;;;;;;4.40;1.90;;;;;;;28.03;24.23;101852.56;5001828;28;20136;-77
2022/06/14 10:50:07;;;;;;;5.72;2.15;;;;;;;28.06;24.62;101851.34;5006011;28;20038;-77
2022/06/14 10:53:04;;;;;;;4.22;1.75;;;;;;;28.09;24.11;101844.47;5003512;28;20073;-78
2022/06/14 10:55:39;;;;;;;3.13;1.40;;;;;;;28.11;24.60;101848.81;5007208;28;20568;-78
2022/06/14 10:58:46;;;;;;;3.90;1.98;;;;;;;28.13;23.92;101837.47;5000279;28;20074;-77
2022/06/14 11:01:38;;;;;;;4.68;2.20;;;;;;;28.13;23.95;101835.53;5007447;28;20081;-76
2022/06/14 11:04:40;;;;;;;4.00;1.98;;;;;;;28.20;24.33;101830.06;4996497;28;20041;-77
2022/06/14 11:07:58;;;;;;;4.60;1.70;;;;;;;28.20;24.58;101827.28;5002229;28;20050;-78
2022/06/14 11:10:33;;;;;;;3.00;1.63;;;;;;;28.26;24.61;101830.16;4953147;28;20304;-77
2022/06/14 11:13:32;;;;;;;4.05;1.80;;;;;;;28.29;24.11;101826.09;4989395;28;20097;-78
2022/06/14 11:16:06;;;;;;;3.85;1.67;;;;;;;28.34;24.04;101821.66;5006285;28;20068;-77
2022/06/14 11:18:42;;;;;;;5.28;2.20;;;;;;;28.38;24.17;101823.00;4982673;28;20138;-77
2022/06/14 11:21:29;;;;;;;5.03;2.00;;;;;;;28.41;23.92;101824.56;5003923;28;20081;-78
2022/06/14 11:24:09;;;;;;;4.68;2.10;;;;;;;28.42;23.51;101814.22;5001008;28;20496;-77
2022/06/14 11:26:54;;;;;;;4.15;2.00;;;;;;;28.44;23.62;101809.31;5047378;28;20092;-77
2022/06/14 11:29:43;;;;;;;4.28;2.30;;;;;;;28.45;24.10;101805.47;5044971;28;20054;-77
2022/06/14 11:32:27;;;;;;;4.45;1.70;;;;;;;28.46;23.54;101808.06;5050169;28;20132;-77
2022/06/14 11:35:23;;;;;;;3.90;1.90;;;;;;;28.44;23.52;101800.94;5051131;28;20468;-77
2022/06/14 11:37:57;;;;;;;5.95;2.25;;;;;;;28.47;23.49;101794.97;5060159;28;20123;-77
2022/06/14 11:40:30;;;;;;;4.90;2.20;;;;;;;28.51;23.13;101788.75;5051472;28;20447;-78
2022/06/14 11:43:16;;;;;;;4.40;1.70;;;;;;;28.50;23.26;101792.63;5039592;28;20475;-77
2022/06/14 11:46:03;;;;;;;4.53;1.70;;;;;;;28.51;23.27;101785.09;5047156;28;20045;-78
2022/06/14 11:48:43;;;;;;;5.70;2.05;;;;;;;28.53;23.15;101788.56;5032945;28;20095;-77
2022/06/14 11:51:31;;;;;;;4.85;1.70;;;;;;;28.54;23.31;101787.50;5047393;28;20059;-77
2022/06/14 11:54:16;;;;;;;4.70;1.90;;;;;;;28.52;23.83;101776.53;5040105;28;20045;-76
2022/06/14 11:57:15;;;;;;;5.90;1.70;;;;;;;28.54;23.72;101777.22;5046799;28;20048;-77
2022/06/14 12:00:03;;;;;;;5.63;1.75;;;;;;;28.62;23.36;101773.41;5046350;28;20247;-76
2022/06/14 12:02:36;;;;;;;4.93;1.70;;;;;;;28.67;23.83;101776.47;5017415;28;20192;-76
2022/06/14 12:05:34;;;;;;;4.20;2.08;;;;;;;28.67;22.59;101774.53;5061288;28;20049;-76
2022/06/14 12:08:26;;;;;;;4.32;2.28;;;;;;;28.67;22.83;101763.38;5037225;28;20053;-76
2022/06/14 12:11:07;;;;;;;4.45;1.90;;;;;;;28.71;22.76;101763.84;5044795;28;20076;-76
2022/06/14 12:14:15;;;;;;;4.53;2.00;;;;;;;28.67;22.90;101768.94;5038480;28;20045;-76
2022/06/14 12:16:51;;;;;;;4.18;1.90;;;;;;;28.70;22.55;101762.09;5033739;28;20057;-77
2022/06/14 12:19:30;;;;;;;3.63;2.00;;;;;;;28.73;22.58;101757.00;5047743;28;20045;-77
2022/06/14 12:22:33;;;;;;;4.00;1.75;;;;;;;28.74;22.27;101758.69;5042937;28;20049;-76
2022/06/14 12:28:08;;;;;;;4.13;1.80;;;;;;;28.74;23.07;101750.31;5041261;28;20060;-77
2022/06/14 12:30:37;;;;;;;4.43;1.70;;;;;;;28.76;23.26;101747.34;5044828;28;20048;-75
2022/06/14 12:33:13;;;;;;;4.75;1.98;;;;;;;28.81;22.81;101743.97;5045446;28;20076;-76
2022/06/14 12:35:50;;;;;;;5.05;1.80;;;;;;;28.83;22.70;101747.41;5044968;28;20044;-76
2022/06/14 12:38:26;;;;;;;3.47;1.80;;;;;;;28.86;22.89;101733.91;5042130;28;20049;-78
2022/06/14 12:41:15;;;;;;;3.22;1.65;;;;;;;28.87;23.07;101732.00;5045195;28;20041;-77
2022/06/14 12:43:44;;;;;;;3.42;1.95;;;;;;;28.93;22.72;101725.59;5041152;28;20080;-78
2022/06/14 12:46:15;;;;;;;2.85;1.60;;;;;;;28.97;23.13;101729.72;5041099;28;20057;-78
2022/06/14 12:49:01;;;;;;;4.25;2.13;;;;;;;29.02;22.63;101724.38;5047774;28;20045;-78